Corpus Christi International, TX

3:04 AM CDT en Septiembre 21, 2014 (GMT -0500)
Corpus Christi Naval Air Station-Truax | Change Station
CLOSE
Current Station
Aeropuerto
Location: Corpus Christi NAS,
Altura: 20 ft
Estaciones meteorológicas cercanas

Alt 20 ft 27.69 °N, 97.29 °W | Updated 8 minutes ago

Parcialmente nublado
Parcialmente nublado
82 ° F
Sensación térmica 90 ° F
N
8
Viento Variable Viento desde Este

Hoy
Alta -- | Baja -- ° F
--% Posibilidad de precipitaciones
Ayer
Alta -- | Baja -- ° F
Precip. -- pul
7:18 AM 7:27 PM
Creciente menguante, 8% visible
Presión 29.90 pul
Visibilidad 10.0 Millas
Nubes Despejado
Índice de calor 90 ° F
Punto de rocío 77 ° F
Humedad 85%
Precipitaciones 0.00 pul
Espesor de la nieve No disponible.
UV 0 de una escala de 12
Polen 9.50 de una escala de 12
Ozono Buena
Flu Activity No disponible.
METAR KNGP 210756Z AUTO 09007KT 10SM CLR 28/25 A2990 RMK AO2 SLP125 T02780250

More Conditions Fewer Conditions

Presión 29.90 pul
Visibilidad 10.0 Millas
Nubes Despejado
Índice de calor 90 ° F
Punto de rocío 77 ° F
Humedad 85%
Precipitaciones 0.00 pul
Espesor de la nieve No disponible.
UV 0 de una escala de 12
Polen 9.50 de una escala de 12
Ozono Buena
Flu Activity No disponible.
METAR KNGP 210756Z AUTO 09007KT 10SM CLR 28/25 A2990 RMK AO2 SLP125 T02780250

More Conditions Fewer Conditions

Nowcast | as of 1:10 am CDT on September 21, 2014

Through 3 am...isolated showers will continue over the middle Texas coastal waters and the coastal Bend region. Brief moderate to heavy rainfall may occur with these showers.

×

10-Day Weather Forecast

Almanac

Astronomía

Sep. 21, 2014 Salida Puesta
Hora real 7:18 AM CDT 7:27 PM CDT
Crepúsculo civil 6:54 AM CDT 7:50 PM CDT
Crepúsculo náutico 6:27 AM CDT 8:18 PM CDT
Crepúsculo astronómico 5:59 AM CDT 8:45 PM CDT
Luna 5:02 AM CDT 5:56 PM CDT
Horas de luz 12h 56m
Horas de luz
12h 09m
Tomorrow will be 1m 38s shorter.
Creciente menguante, 8% of the Moon is Illuminated
Hoy
Creciente menguante
Sep 24
Nueva
Oct 1
Cuarto creciente
Oct 8
Luna llena
Oct 15
Cuarto menguante

Extremos de hoy

Máximos del estado Bajos del estado

Community

WunderPhotos

Upload Photos

1,755,101 ¡fotos cargadas!

Nearby

Calidad del aire

  Calidad del aire Índice AQ Contaminante
Ayer Buena
OZONE
Real Buena
OZONE
Domingo Buena
OZONE
Domingo Buena
PM10
Lunes Buena
OZONE
Lunes Buena
PM10
Martes Buena
OZONE
Martes Buena
PM10

Grosos de nieve

Estación Profundido Altura
No tenemos constancia de nieve nueva.

Actividad de terremotos

Ciudad Distance Mag. Tiempo y dato
No hay informes recientes de la actividad sísmica.
Magnitud mínima muestra es 2,5.

Temperaturas de aguas costeras

Lugar Temperatura
Baffin Bay Point of Rocks, TX 84.0 ° F
South Bird Island, TX 86.0 ° F
Packery Channel, TX 84.9 ° F
Port Aransas, TX 84.9 ° F
Malaquite Beach (Corpus Christi), TX 84.9 ° F

Estaciones meteorológicas cercanas